TimePST,TemperatureF,Dew PointF,Humidity,Sea Level PressureIn,VisibilityMPH,Wind Direction,Wind SpeedMPH,Gust SpeedMPH,PrecipitationIn,Events,Conditions,WindDirDegrees,DateUTC
12:07 AM,51.8,46.4,82,29.84,2.0,West,9.2,-,0.09,Rain,Heavy Rain,260,2013-03-08 08:07:00
12:13 AM,51.8,46.4,82,29.84,2.0,WSW,9.2,-,0.15,Rain,Heavy Rain,250,2013-03-08 08:13:00
12:35 AM,51.8,46.4,82,29.83,3.0,WNW,4.6,-,0.29,Rain,Rain,300,2013-03-08 08:35:00
12:55 AM,50.0,46.0,86,29.85,5.0,NNW,5.8,-,0.36,Rain,Rain,340,2013-03-08 08:55:00
1:48 AM,51.8,46.4,82,29.83,3.0,West,10.4,-,0.05,Rain,Heavy Rain,280,2013-03-08 09:48:00
1:55 AM,48.9,43.0,80,29.86,4.0,West,13.8,-,0.06,Rain,Rain,280,2013-03-08 09:55:00
2:04 AM,48.2,42.8,82,29.82,7.0,NW,10.4,-,0.02,Rain,Rain,310,2013-03-08 10:04:00
2:55 AM,50.0,42.1,74,29.82,10.0,Calm,Calm,-,0.03,,Overcast,0,2013-03-08 10:55:00
3:55 AM,48.9,44.1,83,29.83,10.0,Calm,Calm,-,0.00,,Overcast,0,2013-03-08 11:55:00
4:55 AM,48.9,43.0,80,29.84,10.0,Calm,Calm,-,0.00,,Overcast,0,2013-03-08 12:55:00
5:55 AM,48.9,43.0,80,29.84,10.0,Calm,Calm,-,N/A,,Clear,0,2013-03-08 13:55:00
6:55 AM,48.9,43.0,80,29.86,10.0,Calm,Calm,-,N/A,,Scattered Clouds,0,2013-03-08 14:55:00
7:55 AM,52.0,44.1,74,29.89,10.0,NE,3.5,-,N/A,,Partly Cloudy,50,2013-03-08 15:55:00
8:55 AM,53.1,43.0,69,29.91,10.0,Calm,Calm,-,N/A,,Scattered Clouds,0,2013-03-08 16:55:00
9:18 AM,53.6,42.8,67,29.88,10.0,Calm,Calm,-,N/A,,Mostly Cloudy,0,2013-03-08 17:18:00
9:27 AM,53.6,42.8,67,29.88,10.0,WSW,4.6,-,N/A,,Mostly Cloudy,250,2013-03-08 17:27:00
9:34 AM,53.6,42.8,67,29.88,10.0,Variable,4.6,-,N/A,,Mostly Cloudy,0,2013-03-08 17:34:00
9:55 AM,54.0,42.1,64,29.92,10.0,WNW,5.8,-,N/A,,Mostly Cloudy,290,2013-03-08 17:55:00
10:55 AM,57.0,41.0,55,29.93,10.0,West,11.5,-,N/A,,Mostly Cloudy,260,2013-03-08 18:55:00
11:55 AM,55.9,41.0,57,29.93,10.0,WSW,12.7,-,N/A,,Mostly Cloudy,240,2013-03-08 19:55:00
12:55 PM,57.9,42.1,56,29.92,10.0,West,10.4,-,N/A,,Scattered Clouds,260,2013-03-08 20:55:00
1:55 PM,57.9,43.0,58,29.91,10.0,West,12.7,-,N/A,,Scattered Clouds,270,2013-03-08 21:55:00
2:55 PM,59.0,44.1,58,29.91,10.0,West,15.0,-,N/A,,Scattered Clouds,270,2013-03-08 22:55:00
3:55 PM,57.9,45.0,62,29.91,10.0,West,17.3,-,N/A,,Scattered Clouds,260,2013-03-08 23:55:00
4:55 PM,57.9,46.9,67,29.92,10.0,West,17.3,-,N/A,,Scattered Clouds,280,2013-03-09 00:55:00
5:55 PM,57.0,46.0,67,29.94,10.0,West,16.1,-,N/A,,Scattered Clouds,260,2013-03-09 01:55:00
6:55 PM,57.0,44.1,62,29.97,10.0,West,19.6,-,N/A,,Overcast,270,2013-03-09 02:55:00
7:55 PM,55.9,44.1,64,29.99,10.0,West,17.3,-,N/A,,Mostly Cloudy,280,2013-03-09 03:55:00
8:55 PM,54.0,44.1,69,30.01,10.0,WNW,12.7,-,N/A,,Mostly Cloudy,290,2013-03-09 04:55:00
9:55 PM,54.0,43.0,66,30.03,10.0,West,20.7,-,N/A,,Overcast,280,2013-03-09 05:55:00
10:55 PM,53.1,44.1,71,30.04,10.0,West,13.8,-,N/A,,Overcast,280,2013-03-09 06:55:00
11:55 PM,52.0,43.0,71,30.04,10.0,WNW,16.1,23.0,N/A,,Clear,290,2013-03-09 07:55:00